Detroit, Michigan
Traffic Map
Current Weather Conditions
Detroit, Michigan
Few Clouds
Few Clouds
22°
Feels Like: 22°
Wind Chill: 22° Ceiling: Unl
Heat Index: 22° Visibility: 8mi
Dew Point: 21° Wind: 8mph
Humidity: 94% Direction: 230° (SW)
Pressure: 29.84in Gusts: 0mph
Raw Report DataCYQG 020700Z 23007KT 8SM FEW280 22/21 A2984 RMK CI1 SLP103
Traffic Incident Summary
Active as of:
Severity:
Category:
InformationThere was an issue retrieving the traffic information for this location. Please try a different location or try again shortly.
Advertisements
Track Severe Weather on mobile